Baraga, MI (49908)

8:21 PM EDT on August 28, 2015 (GMT -0400)
APRSWXNET | | Change Station
CLOSE
Current Station
Personal Weather Station
Location: L'Anse, MI
Elevation: 702 ft
Nearby Weather Stations

Elev 702 ft 46.84 °N, 88.38 °W | Updated 23 minutes ago

Overcast
Overcast
73 °F
Feels Like 74 °F
N
3
Wind Variable Wind from SW
Gusts 8.0 mph

Today
High -- | Low -- °F
--% Chance of Precip.
Yesterday
High -- | Low -- °F
Precip. -- in
7:08 AM 8:41 PM
Waxing Gibbous, 99% visible
Pressure 29.95 in
Visibility 10.0 miles
Clouds Mostly Cloudy 10000 ft
Mostly Cloudy 12000 ft
Heat Index 74 °F
Dew Point 66 °F
Humidity 78%
Rainfall in
Snow Depth Not available.
UV 0 out of 12
Pollen 5.00 out of 12
Air Quality Not available.
Flu Activity Not available.
METAR KCMX 282353Z AUTO 19007KT 10SM -RA BKN100 BKN120 20/17 A2995 RMK AO2 RAB03 SLP141 P0004 60004 T02000172 10222 20200 58001 TSNO $
Pressure 29.95 in
Visibility 10.0 miles
Clouds Mostly Cloudy 10000 ft
Mostly Cloudy 12000 ft
Heat Index 74 °F
Dew Point 66 °F
Humidity 78%
Rainfall in
Snow Depth Not available.
UV 0 out of 12
Pollen 5.00 out of 12
Air Quality Not available.
Flu Activity Not available.
METAR KCMX 282353Z AUTO 19007KT 10SM -RA BKN100 BKN120 20/17 A2995 RMK AO2 RAB03 SLP141 P0004 60004 T02000172 10222 20200 58001 TSNO $

10-Day Weather Forecast

×

Almanac

Astronomy

Aug. 28, 2015 Rise Set
Actual Time
Civil Twilight
Nautical Twilight
Astronomical Twilight
Moon
Length of Visible Light
Length of Day
Tomorrow will be .
, % of the Moon is Illuminated

Today's Extremes

State Highs State Lows

Community

WunderPhotos

Upload Photos

1,850,545 photos uploaded!

WunderBlogs® & News

Nearby

Air Quality

  Air Quality AQ Index Pollutant
Not available.

Snow Depth

Station Depth Elevation

Earthquake Activity

City Distance Mag. Time & Date
Minimum magnitude displayed is 2.5.

Coastal Water Temperatures

Place Temperature

Stations

Nearby Weather Stations

Station Location Temp. Windchill Dew Point Humidity Wind Precip. Elev Updated Type